Time;durP1;ratioP1;P1;durP2;ratioP2;P2;SDS_P1;SDS_P2;PMS_P1;PMS_P2;Temp;Humidity;BMP_temperature;BMP_pressure;BME280_temperature;BME280_humidity;BME280_pressure;Samples;Min_cycle;Max_cycle;Signal;HPM_P1;HPM_P2
2022/10/07 00:02:18;;;;;;;;;;;10.00;99.90;;;;;;5981503;24;20340;-92
2022/10/07 00:04:45;;;;;;;;;;;10.00;99.90;;;;;;5981386;24;20348;-92
2022/10/07 00:07:11;;;;;;;;;;;10.00;99.90;;;;;;6003099;23;20390;-91
2022/10/07 00:09:37;;;;;;;;;;;10.00;99.90;;;;;;6002584;23;19918;-91
2022/10/07 00:12:02;;;;;;;;;;;10.00;99.90;;;;;;5980592;24;19989;-92
2022/10/07 00:14:28;;;;;;;;;;;9.90;99.90;;;;;;5957485;24;19914;-92
2022/10/07 00:16:53;;;;;;;;;;;9.90;99.90;;;;;;5982056;24;20128;-91
2022/10/07 00:19:19;;;;;;;;;;;9.90;99.90;;;;;;5957795;24;19918;-92
2022/10/07 00:21:45;;;;;;;;;;;9.90;99.90;;;;;;5980515;24;19943;-91
2022/10/07 00:24:11;;;;;;;;;;;9.80;99.90;;;;;;6003670;23;19921;-91
2022/10/07 00:26:37;;;;;;;;;;;9.80;99.90;;;;;;6003049;23;19915;-92
2022/10/07 00:29:04;;;;;;;;;;;9.80;99.90;;;;;;5982757;24;20051;-92
2022/10/07 00:31:30;;;;;;;;;;;9.80;99.90;;;;;;6003513;23;20346;-92
2022/10/07 00:33:56;;;;;;;;;;;9.70;99.90;;;;;;6004105;23;19954;-91
2022/10/07 00:36:29;;;;;;;;;;;9.70;99.90;;;;;;5981411;24;19914;-92
2022/10/07 00:38:56;;;;;;;;;;;9.70;99.90;;;;;;5982437;24;19930;-93
2022/10/07 00:41:29;;;;;;;;;;;9.70;99.90;;;;;;5955722;24;19950;-91
2022/10/07 00:43:55;;;;;;;;;;;9.70;99.90;;;;;;6004892;23;19918;-92
2022/10/07 00:46:34;;;;;;;;;;;9.60;99.90;;;;;;5958222;24;19921;-92
2022/10/07 00:49:18;;;;;;;;;;;9.60;99.90;;;;;;5957777;24;19934;-92
2022/10/07 00:51:44;;;;;;;;;;;9.50;99.90;;;;;;5980723;24;19930;-92
2022/10/07 00:54:11;;;;;;;;;;;9.40;99.90;;;;;;5982526;24;19922;-92
2022/10/07 00:56:38;;;;;;;;;;;9.30;99.90;;;;;;5980700;24;19924;-93
2022/10/07 00:59:04;;;;;;;;;;;9.20;99.90;;;;;;5957580;24;20277;-92
2022/10/07 01:01:30;;;;;;;;;;;9.20;99.90;;;;;;5957770;24;20249;-92
2022/10/07 01:03:55;;;;;;;;;;;9.10;99.90;;;;;;5957252;24;19971;-92
2022/10/07 01:06:22;;;;;;;;;;;9.00;99.90;;;;;;5981593;24;19934;-92
2022/10/07 01:08:48;;;;;;;;;;;8.90;99.90;;;;;;6004968;23;19925;-93
2022/10/07 01:11:23;;;;;;;;;;;8.90;99.90;;;;;;6007172;23;19914;-92
2022/10/07 01:13:57;;;;;;;;;;;8.80;99.90;;;;;;6021538;23;19914;-92
2022/10/07 01:16:29;;;;;;;;;;;8.80;99.90;;;;;;5992204;23;20322;-92
2022/10/07 01:19:08;;;;;;;;;;;8.80;99.90;;;;;;5958354;24;19930;-93
2022/10/07 01:21:36;;;;;;;;;;;8.70;99.90;;;;;;5959662;24;20025;-92
2022/10/07 01:24:11;;;;;;;;;;;8.60;99.90;;;;;;5959297;24;19921;-92
2022/10/07 01:26:56;;;;;;;;;;;8.60;99.90;;;;;;5983747;23;19914;-92
2022/10/07 01:29:24;;;;;;;;;;;8.50;99.90;;;;;;6006284;23;19926;-91
2022/10/07 01:32:19;;;;;;;;;;;8.50;99.90;;;;;;6005965;23;20352;-92
2022/10/07 01:34:45;;;;;;;;;;;8.50;99.90;;;;;;5964032;24;19919;-92
2022/10/07 01:37:13;;;;;;;;;;;8.50;99.90;;;;;;5982264;24;19929;-91
2022/10/07 01:39:49;;;;;;;;;;;8.40;99.90;;;;;;6005250;23;19918;-91
2022/10/07 01:42:15;;;;;;;;;;;8.40;99.90;;;;;;5959135;24;19915;-93
2022/10/07 01:44:43;;;;;;;;;;;8.40;99.90;;;;;;5957757;24;19914;-92
2022/10/07 01:47:08;;;;;;;;;;;8.40;99.90;;;;;;5982867;24;19918;-92
2022/10/07 01:49:34;;;;;;;;;;;8.40;99.90;;;;;;5958843;24;19945;-91
2022/10/07 01:52:19;;;;;;;;;;;8.40;99.90;;;;;;5958893;24;19990;-92
2022/10/07 01:54:44;;;;;;;;;;;8.30;99.90;;;;;;5982258;24;19929;-91
2022/10/07 01:57:19;;;;;;;;;;;8.30;99.90;;;;;;6006073;23;19915;-92
2022/10/07 01:59:56;;;;;;;;;;;8.30;99.90;;;;;;6005863;23;19949;-92
2022/10/07 02:02:22;;;;;;;;;;;8.30;99.90;;;;;;5982557;24;20253;-91
2022/10/07 02:05:26;;;;;;;;;;;8.30;99.90;;;;;;5958584;24;19922;-92
2022/10/07 02:08:10;;;;;;;;;;;8.30;99.90;;;;;;5902944;24;19923;-91
2022/10/07 02:10:52;;;;;;;;;;;8.30;99.90;;;;;;5902814;24;19950;-91
2022/10/07 02:13:30;;;;;;;;;;;8.30;99.90;;;;;;5902657;24;20005;-91
2022/10/07 02:16:04;;;;;;;;;;;8.30;99.90;;;;;;5902444;24;20227;-92
2022/10/07 02:18:31;;;;;;;;;;;8.20;99.90;;;;;;5902130;24;19922;-92
2022/10/07 02:20:58;;;;;;;;;;;8.20;99.90;;;;;;5902530;24;19962;-92
2022/10/07 02:23:24;;;;;;;;;;;8.20;99.90;;;;;;5880412;24;19916;-92
2022/10/07 02:25:51;;;;;;;;;;;8.30;99.90;;;;;;5925667;24;19919;-92
2022/10/07 02:28:19;;;;;;;;;;;8.30;99.90;;;;;;5926604;24;20124;-92
2022/10/07 02:30:46;;;;;;;;;;;8.20;99.90;;;;;;5927269;24;20389;-91
2022/10/07 02:33:13;;;;;;;;;;;8.20;99.90;;;;;;5905917;24;19940;-91
2022/10/07 02:35:41;;;;;;;;;;;8.20;99.90;;;;;;5907089;24;19959;-91
2022/10/07 02:38:09;;;;;;;;;;;8.20;99.90;;;;;;5928267;24;19922;-92
2022/10/07 02:40:35;;;;;;;;;;;8.30;99.90;;;;;;5985534;24;19927;-92
2022/10/07 02:43:21;;;;;;;;;;;8.30;99.90;;;;;;5962475;24;20256;-92
2022/10/07 02:45:50;;;;;;;;;;;8.40;99.90;;;;;;5970786;24;19909;-92
2022/10/07 02:48:24;;;;;;;;;;;8.50;99.90;;;;;;6008559;23;19970;-92
2022/10/07 02:50:52;;;;;;;;;;;8.60;99.90;;;;;;5986750;24;20017;-90
2022/10/07 02:53:20;;;;;;;;;;;8.60;99.90;;;;;;5991726;24;19922;-90
2022/10/07 02:55:47;;;;;;;;;;;8.60;99.90;;;;;;5993411;23;19984;-91
2022/10/07 02:58:14;;;;;;;;;;;8.60;99.90;;;;;;5997624;24;19925;-91
2022/10/07 03:00:44;;;;;;;;;;;8.70;99.90;;;;;;6027624;23;19919;-90
2022/10/07 03:03:10;;;;;;;;;;;8.70;99.90;;;;;;6026082;23;19903;-91
2022/10/07 03:05:36;;;;;;;;;;;8.70;99.90;;;;;;5991263;23;20318;-91
2022/10/07 03:08:03;;;;;;;;;;;8.70;99.90;;;;;;5982442;24;19918;-91
2022/10/07 03:10:29;;;;;;;;;;;8.80;99.90;;;;;;5982662;23;19918;-90
2022/10/07 03:12:54;;;;;;;;;;;8.90;99.90;;;;;;5982335;24;20329;-92
2022/10/07 03:15:24;;;;;;;;;;;8.90;99.90;;;;;;6003590;23;19950;-91
2022/10/07 03:17:49;;;;;;;;;;;8.90;99.90;;;;;;5957631;24;19915;-91
2022/10/07 03:20:15;;;;;;;;;;;9.00;99.90;;;;;;5957333;24;19914;-91
2022/10/07 03:22:42;;;;;;;;;;;9.00;99.90;;;;;;5958360;24;19971;-91
2022/10/07 03:25:11;;;;;;;;;;;9.00;99.90;;;;;;6004798;23;19957;-91
2022/10/07 03:27:38;;;;;;;;;;;9.00;99.90;;;;;;5988375;24;20345;-91
2022/10/07 03:30:04;;;;;;;;;;;9.00;99.90;;;;;;6013421;23;20288;-91
2022/10/07 03:32:29;;;;;;;;;;;9.00;99.90;;;;;;6004027;23;19918;-92
2022/10/07 03:34:55;;;;;;;;;;;9.10;99.90;;;;;;5981967;23;19921;-91
2022/10/07 03:37:21;;;;;;;;;;;9.10;99.90;;;;;;6003835;23;19918;-91
2022/10/07 03:39:47;;;;;;;;;;;9.10;99.90;;;;;;5980673;24;20241;-91
2022/10/07 03:42:13;;;;;;;;;;;9.10;99.90;;;;;;6003888;23;19944;-91
2022/10/07 03:44:38;;;;;;;;;;;9.10;99.90;;;;;;6003910;23;19915;-91
2022/10/07 03:47:04;;;;;;;;;;;9.10;99.90;;;;;;6003695;23;19925;-91
2022/10/07 03:49:30;;;;;;;;;;;9.10;99.90;;;;;;5982082;23;19919;-91
2022/10/07 03:51:55;;;;;;;;;;;9.10;99.90;;;;;;5957471;24;19990;-91
2022/10/07 03:54:21;;;;;;;;;;;9.00;99.90;;;;;;6003860;23;19951;-92
2022/10/07 03:56:47;;;;;;;;;;;9.00;99.90;;;;;;6004335;23;19918;-91
2022/10/07 03:59:12;;;;;;;;;;;9.10;99.90;;;;;;6003602;23;19967;-91
2022/10/07 04:01:38;;;;;;;;;;;9.00;99.90;;;;;;5982043;24;19915;-91
2022/10/07 04:04:06;;;;;;;;;;;9.00;99.90;;;;;;5956733;24;20303;-91
2022/10/07 04:06:32;;;;;;;;;;;9.00;99.90;;;;;;5981708;23;19918;-92
2022/10/07 04:08:57;;;;;;;;;;;9.00;99.90;;;;;;5956803;24;19925;-91
2022/10/07 04:11:23;;;;;;;;;;;9.00;99.90;;;;;;6004327;23;20227;-91
2022/10/07 04:13:48;;;;;;;;;;;9.00;99.90;;;;;;5982253;23;20356;-91
2022/10/07 04:16:14;;;;;;;;;;;9.00;99.90;;;;;;5957062;24;20225;-91
2022/10/07 04:18:43;;;;;;;;;;;9.00;99.90;;;;;;6003806;23;19915;-90
2022/10/07 04:21:09;;;;;;;;;;;9.00;99.90;;;;;;5957285;24;20009;-91
2022/10/07 04:23:35;;;;;;;;;;;9.00;99.90;;;;;;5957255;24;19919;-91
2022/10/07 04:26:00;;;;;;;;;;;9.00;99.90;;;;;;5979971;24;19966;-91
2022/10/07 04:28:26;;;;;;;;;;;9.00;99.90;;;;;;6003472;23;19918;-91
2022/10/07 04:30:52;;;;;;;;;;;9.00;99.90;;;;;;5982195;23;19986;-91
2022/10/07 04:33:19;;;;;;;;;;;9.10;99.90;;;;;;5957015;24;19974;-91
2022/10/07 04:35:45;;;;;;;;;;;9.00;99.90;;;;;;6003445;23;19914;-91
2022/10/07 04:38:11;;;;;;;;;;;9.00;99.90;;;;;;5980949;24;19956;-91
2022/10/07 04:40:37;;;;;;;;;;;8.90;99.90;;;;;;6004394;23;20286;-91
2022/10/07 04:43:18;;;;;;;;;;;9.00;99.90;;;;;;5978649;24;19919;-91
2022/10/07 04:45:44;;;;;;;;;;;9.00;99.90;;;;;;6003232;23;19918;-90
2022/10/07 04:48:10;;;;;;;;;;;9.00;99.90;;;;;;5981562;23;19925;-91
2022/10/07 04:50:38;;;;;;;;;;;9.00;99.90;;;;;;5981747;24;19915;-91
2022/10/07 04:53:05;;;;;;;;;;;9.00;99.90;;;;;;6003598;23;19971;-91
2022/10/07 04:55:34;;;;;;;;;;;9.00;99.90;;;;;;6003560;23;19918;-91
2022/10/07 04:58:00;;;;;;;;;;;9.00;99.90;;;;;;6003753;23;19945;-90
2022/10/07 05:00:25;;;;;;;;;;;9.00;99.90;;;;;;5981581;23;20249;-90
2022/10/07 05:02:51;;;;;;;;;;;9.00;99.90;;;;;;6003261;23;19990;-90
2022/10/07 05:05:16;;;;;;;;;;;9.00;99.90;;;;;;6003467;23;19914;-91
2022/10/07 05:07:42;;;;;;;;;;;9.00;99.90;;;;;;6003343;23;19946;-90
2022/10/07 05:10:08;;;;;;;;;;;9.00;99.90;;;;;;6003747;23;19915;-91
2022/10/07 05:12:34;;;;;;;;;;;9.10;99.90;;;;;;6002861;23;19926;-92
2022/10/07 05:15:01;;;;;;;;;;;9.10;99.90;;;;;;5981413;24;19914;-89
2022/10/07 05:17:27;;;;;;;;;;;9.10;99.90;;;;;;6001953;23;19914;-90
2022/10/07 05:19:53;;;;;;;;;;;9.10;99.90;;;;;;5976026;24;19977;-89
2022/10/07 05:22:19;;;;;;;;;;;9.20;99.90;;;;;;5979162;24;19922;-90
2022/10/07 05:24:44;;;;;;;;;;;9.10;99.90;;;;;;6002957;23;19914;-91
2022/10/07 05:27:11;;;;;;;;;;;9.10;99.90;;;;;;5981665;24;20002;-90
2022/10/07 05:29:38;;;;;;;;;;;9.20;99.90;;;;;;5955982;24;20219;-89
2022/10/07 05:32:03;;;;;;;;;;;9.20;99.90;;;;;;6001422;23;20298;-91
2022/10/07 05:34:29;;;;;;;;;;;9.20;99.90;;;;;;5979445;24;19986;-89
2022/10/07 05:36:54;;;;;;;;;;;9.20;99.90;;;;;;5980995;23;19921;-89
2022/10/07 05:39:20;;;;;;;;;;;9.20;99.90;;;;;;5955911;24;20396;-89
2022/10/07 05:41:46;;;;;;;;;;;9.20;99.90;;;;;;6002608;23;20397;-90
2022/10/07 05:44:11;;;;;;;;;;;9.20;99.90;;;;;;6001543;23;20222;-90
2022/10/07 05:46:39;;;;;;;;;;;9.20;99.90;;;;;;5978889;24;20266;-90
2022/10/07 05:49:04;;;;;;;;;;;9.20;99.90;;;;;;5955223;24;19981;-90
2022/10/07 05:51:30;;;;;;;;;;;9.20;99.90;;;;;;5981150;24;19962;-90
2022/10/07 05:53:56;;;;;;;;;;;9.20;99.90;;;;;;5980277;24;20325;-90
2022/10/07 05:56:21;;;;;;;;;;;9.20;99.90;;;;;;5982178;23;19914;-91
2022/10/07 05:58:50;;;;;;;;;;;9.30;99.90;;;;;;5983346;24;19985;-91
2022/10/07 06:01:16;;;;;;;;;;;9.30;99.90;;;;;;6004105;23;19925;-90
2022/10/07 06:03:43;;;;;;;;;;;9.30;99.90;;;;;;5982549;24;19918;-91
2022/10/07 06:06:09;;;;;;;;;;;9.30;99.90;;;;;;5982987;24;19914;-91
2022/10/07 06:08:35;;;;;;;;;;;9.30;99.90;;;;;;6004943;23;19926;-91
2022/10/07 06:13:49;;;;;;;;;;;9.40;99.90;;;;;;6006089;23;19914;-91
2022/10/07 06:16:15;;;;;;;;;;;9.40;99.90;;;;;;5982355;24;19985;-91
2022/10/07 06:18:41;;;;;;;;;;;9.40;99.90;;;;;;5981151;24;20324;-91
2022/10/07 06:21:06;;;;;;;;;;;9.50;99.90;;;;;;5981907;24;19937;-90
2022/10/07 06:23:32;;;;;;;;;;;9.50;99.90;;;;;;5957508;24;19914;-92
2022/10/07 06:26:02;;;;;;;;;;;9.50;99.90;;;;;;6005251;23;19914;-91
2022/10/07 06:28:38;;;;;;;;;;;9.50;99.90;;;;;;6003420;23;20249;-89
2022/10/07 06:31:04;;;;;;;;;;;9.50;99.90;;;;;;5957437;24;19958;-89
2022/10/07 06:33:30;;;;;;;;;;;9.60;99.90;;;;;;6004016;23;19980;-90
2022/10/07 06:35:55;;;;;;;;;;;9.70;99.90;;;;;;5956967;24;19918;-90
2022/10/07 06:38:21;;;;;;;;;;;9.70;99.90;;;;;;5955882;24;19948;-88
2022/10/07 06:40:57;;;;;;;;;;;9.60;99.90;;;;;;6001428;23;19921;-88
2022/10/07 06:43:26;;;;;;;;;;;9.70;99.90;;;;;;5982053;24;19943;-89
2022/10/07 06:45:57;;;;;;;;;;;9.80;99.90;;;;;;5981909;23;20301;-88
2022/10/07 06:48:26;;;;;;;;;;;9.80;99.90;;;;;;5955724;24;19926;-88
2022/10/07 06:50:52;;;;;;;;;;;9.90;99.90;;;;;;5981757;23;20262;-88
2022/10/07 06:53:18;;;;;;;;;;;9.90;99.90;;;;;;6001621;23;20009;-87
2022/10/07 06:55:44;;;;;;;;;;;10.00;99.90;;;;;;5980312;24;19959;-86
2022/10/07 06:58:09;;;;;;;;;;;10.00;99.90;;;;;;5981893;23;19918;-88
2022/10/07 07:00:35;;;;;;;;;;;10.20;99.90;;;;;;5978691;24;20281;-88
2022/10/07 07:03:01;;;;;;;;;;;10.10;99.90;;;;;;5984687;24;19915;-88
2022/10/07 07:05:55;;;;;;;;;;;10.20;99.90;;;;;;5961050;24;19921;-92
2022/10/07 07:08:22;;;;;;;;;;;10.20;99.90;;;;;;5988938;24;20098;-92
2022/10/07 07:10:48;;;;;;;;;;;10.40;99.90;;;;;;5973609;24;19926;-88
2022/10/07 07:13:14;;;;;;;;;;;10.40;99.90;;;;;;6026398;23;19938;-91
2022/10/07 07:15:40;;;;;;;;;;;10.50;99.90;;;;;;6017781;23;19922;-90
2022/10/07 07:18:06;;;;;;;;;;;10.60;99.90;;;;;;5982167;24;19985;-93
2022/10/07 07:20:36;;;;;;;;;;;10.70;99.90;;;;;;5957275;24;19915;-91
2022/10/07 07:23:03;;;;;;;;;;;10.80;99.90;;;;;;5956798;24;19939;-90
2022/10/07 07:25:28;;;;;;;;;;;10.90;99.90;;;;;;5957534;24;19925;-92
2022/10/07 07:27:55;;;;;;;;;;;11.00;99.90;;;;;;5981606;24;19915;-93
2022/10/07 07:30:23;;;;;;;;;;;11.10;99.90;;;;;;5981635;24;19946;-91
2022/10/07 07:32:48;;;;;;;;;;;11.20;99.90;;;;;;5980930;24;20316;-89
2022/10/07 07:35:14;;;;;;;;;;;11.30;99.90;;;;;;6003344;23;19943;-89
2022/10/07 07:37:40;;;;;;;;;;;11.40;99.90;;;;;;5956798;24;19997;-89
2022/10/07 07:40:05;;;;;;;;;;;11.40;99.90;;;;;;6002705;23;19918;-89
2022/10/07 07:42:32;;;;;;;;;;;11.40;99.90;;;;;;5979347;24;20360;-89
2022/10/07 07:44:58;;;;;;;;;;;11.50;99.90;;;;;;5980334;24;19925;-91
2022/10/07 07:47:24;;;;;;;;;;;11.50;99.90;;;;;;6003379;23;19922;-88
2022/10/07 07:49:50;;;;;;;;;;;11.50;99.90;;;;;;5979758;24;20275;-90
2022/10/07 07:52:15;;;;;;;;;;;11.50;99.90;;;;;;5981169;24;20320;-89
2022/10/07 07:54:42;;;;;;;;;;;11.60;99.90;;;;;;5982769;23;20000;-89
2022/10/07 07:57:08;;;;;;;;;;;11.60;99.90;;;;;;6002907;23;19914;-89
2022/10/07 07:59:36;;;;;;;;;;;11.60;99.90;;;;;;5978744;24;19933;-88
2022/10/07 08:02:02;;;;;;;;;;;11.70;99.90;;;;;;5978743;24;19914;-89
2022/10/07 08:04:28;;;;;;;;;;;11.70;99.90;;;;;;6002455;23;20294;-88
2022/10/07 08:06:54;;;;;;;;;;;11.80;99.90;;;;;;5979978;23;20376;-90
2022/10/07 08:09:20;;;;;;;;;;;11.90;99.90;;;;;;5981420;24;20001;-90
2022/10/07 08:11:45;;;;;;;;;;;11.90;99.90;;;;;;6002917;23;19949;-89
2022/10/07 08:14:12;;;;;;;;;;;12.10;99.90;;;;;;5956650;24;19914;-89
2022/10/07 08:16:37;;;;;;;;;;;12.20;99.90;;;;;;5978930;24;19954;-89
2022/10/07 08:19:03;;;;;;;;;;;12.20;99.90;;;;;;5979182;24;20011;-90
2022/10/07 08:21:31;;;;;;;;;;;12.30;99.90;;;;;;5979293;24;19918;-89
2022/10/07 08:23:58;;;;;;;;;;;12.30;99.90;;;;;;5956303;24;19954;-89
2022/10/07 08:26:24;;;;;;;;;;;12.30;99.90;;;;;;6003342;23;19954;-89
2022/10/07 08:28:50;;;;;;;;;;;12.30;99.90;;;;;;5981275;23;20321;-89
2022/10/07 08:31:17;;;;;;;;;;;12.30;99.90;;;;;;5980611;24;19914;-89
2022/10/07 08:33:43;;;;;;;;;;;12.20;99.90;;;;;;5979469;24;19919;-88
2022/10/07 08:36:17;;;;;;;;;;;12.20;99.90;;;;;;5978156;24;19918;-88
2022/10/07 08:38:43;;;;;;;;;;;12.20;99.90;;;;;;6002849;23;19986;-88
2022/10/07 08:41:15;;;;;;;;;;;12.10;99.90;;;;;;5979351;24;19915;-89
2022/10/07 08:43:45;;;;;;;;;;;12.20;99.90;;;;;;5981335;24;20245;-88
2022/10/07 08:46:19;;;;;;;;;;;12.30;99.90;;;;;;5955917;24;19979;-90
2022/10/07 08:48:54;;;;;;;;;;;12.40;99.90;;;;;;6001335;23;19919;-89
2022/10/07 08:51:23;;;;;;;;;;;12.40;99.90;;;;;;6002978;23;19962;-89
2022/10/07 08:53:50;;;;;;;;;;;12.50;99.90;;;;;;5981521;24;19967;-89
2022/10/07 08:56:17;;;;;;;;;;;12.60;99.90;;;;;;6002806;23;19915;-89
2022/10/07 08:58:55;;;;;;;;;;;12.70;99.90;;;;;;6003213;23;19915;-89
2022/10/07 09:01:29;;;;;;;;;;;12.70;99.90;;;;;;5980303;24;19946;-90
2022/10/07 09:04:01;;;;;;;;;;;12.80;99.90;;;;;;5980150;24;20381;-91
2022/10/07 09:06:29;;;;;;;;;;;12.90;99.90;;;;;;5979674;24;19914;-90
2022/10/07 09:08:58;;;;;;;;;;;13.10;99.90;;;;;;6002811;23;19941;-89
2022/10/07 09:11:24;;;;;;;;;;;13.10;99.90;;;;;;6002851;23;19997;-90
2022/10/07 09:13:57;;;;;;;;;;;13.30;99.90;;;;;;5980912;24;20293;-89
2022/10/07 09:16:26;;;;;;;;;;;13.30;99.90;;;;;;5980678;24;19915;-88
2022/10/07 09:18:57;;;;;;;;;;;13.50;99.90;;;;;;5980335;24;19918;-92
2022/10/07 09:21:26;;;;;;;;;;;13.40;99.90;;;;;;5981064;24;19918;-92
2022/10/07 09:23:55;;;;;;;;;;;13.50;99.90;;;;;;5956535;24;20274;-89
2022/10/07 09:26:20;;;;;;;;;;;13.60;99.90;;;;;;6003248;23;19975;-92
2022/10/07 09:28:46;;;;;;;;;;;13.60;99.90;;;;;;5956839;24;19927;-91
2022/10/07 09:31:13;;;;;;;;;;;13.70;99.90;;;;;;6005542;23;20028;-88
2022/10/07 09:33:41;;;;;;;;;;;13.80;99.90;;;;;;5958375;24;19914;-89
2022/10/07 09:36:08;;;;;;;;;;;13.80;99.90;;;;;;5982266;23;19950;-90
2022/10/07 09:38:34;;;;;;;;;;;13.90;99.90;;;;;;6004763;23;21988;-90
2022/10/07 09:41:14;;;;;;;;;;;14.10;99.90;;;;;;5983188;23;19968;-90
2022/10/07 09:43:41;;;;;;;;;;;14.20;99.90;;;;;;6005231;23;19922;-91
2022/10/07 09:46:23;;;;;;;;;;;14.40;99.90;;;;;;6004554;23;19945;-90
2022/10/07 09:48:51;;;;;;;;;;;14.60;99.90;;;;;;5981639;24;19918;-89
2022/10/07 09:51:23;;;;;;;;;;;14.60;99.90;;;;;;6004792;23;19922;-88
2022/10/07 09:53:54;;;;;;;;;;;14.70;99.90;;;;;;5960024;24;19915;-90
2022/10/07 09:56:33;;;;;;;;;;;14.80;99.90;;;;;;6005803;23;19922;-90
2022/10/07 09:59:13;;;;;;;;;;;14.90;99.90;;;;;;5981721;24;19915;-93
2022/10/07 10:01:40;;;;;;;;;;;15.10;99.90;;;;;;6005935;23;19952;-92
2022/10/07 10:04:14;;;;;;;;;;;15.20;99.90;;;;;;5961599;24;19918;-90
2022/10/07 10:06:44;;;;;;;;;;;15.10;99.90;;;;;;6007534;23;19918;-92
2022/10/07 10:09:10;;;;;;;;;;;15.10;99.90;;;;;;6006493;23;19902;-91
2022/10/07 10:11:36;;;;;;;;;;;15.20;99.90;;;;;;5983972;24;19918;-90
2022/10/07 10:14:21;;;;;;;;;;;15.20;99.90;;;;;;6005365;23;19937;-92
2022/10/07 10:16:47;;;;;;;;;;;15.30;99.90;;;;;;5982102;23;19915;-90
2022/10/07 10:19:25;;;;;;;;;;;15.40;99.90;;;;;;5982648;23;19921;-90
2022/10/07 10:21:54;;;;;;;;;;;15.50;99.90;;;;;;5980990;24;19974;-90
2022/10/07 10:26:24;;;;;;;;;;;15.60;99.90;;;;;;5980428;24;20034;-89
2022/10/07 10:27:10;;;;;;;;;;;15.60;99.90;;;;;;5982808;23;20006;-90
2022/10/07 10:29:51;;;;;;;;;;;15.70;99.90;;;;;;6003837;23;20006;-90
2022/10/07 10:32:31;;;;;;;;;;;15.70;99.90;;;;;;5982593;23;19922;-92
2022/10/07 10:35:01;;;;;;;;;;;15.80;99.90;;;;;;5980152;24;19915;-89
2022/10/07 10:37:27;;;;;;;;;;;15.80;99.90;;;;;;6003457;23;19942;-89
2022/10/07 10:40:06;;;;;;;;;;;15.90;99.90;;;;;;6003054;23;20304;-92
2022/10/07 10:42:37;;;;;;;;;;;16.00;99.90;;;;;;6006242;23;19922;-90
2022/10/07 10:45:23;;;;;;;;;;;16.10;99.90;;;;;;5982431;24;20022;-92
2022/10/07 10:47:49;;;;;;;;;;;16.20;99.90;;;;;;6006355;23;19914;-91
2022/10/07 10:50:16;;;;;;;;;;;16.30;99.90;;;;;;5984004;23;20245;-91
2022/10/07 10:52:45;;;;;;;;;;;16.30;99.90;;;;;;5985217;24;19918;-91
2022/10/07 10:55:11;;;;;;;;;;;16.40;99.90;;;;;;5984802;24;20378;-91
2022/10/07 10:57:46;;;;;;;;;;;16.30;99.90;;;;;;5984940;24;19942;-91
2022/10/07 11:00:17;;;;;;;;;;;16.40;99.90;;;;;;5963868;24;19989;-92
2022/10/07 11:02:52;;;;;;;;;;;16.40;99.90;;;;;;5985860;24;20260;-91
2022/10/07 11:05:24;;;;;;;;;;;16.40;99.90;;;;;;5962611;24;19914;-91
2022/10/07 11:08:10;;;;;;;;;;;16.50;99.90;;;;;;5973969;24;20024;-91
2022/10/07 11:10:48;;;;;;;;;;;16.50;99.90;;;;;;6022730;23;19918;-94
2022/10/07 11:13:18;;;;;;;;;;;16.60;99.90;;;;;;5970022;24;19919;-92
2022/10/07 11:15:51;;;;;;;;;;;16.70;99.90;;;;;;6008211;23;20268;-94
2022/10/07 11:18:23;;;;;;;;;;;16.70;99.90;;;;;;5981526;24;19918;-92
2022/10/07 11:20:49;;;;;;;;;;;16.80;99.90;;;;;;6004985;23;20001;-91
2022/10/07 11:23:17;;;;;;;;;;;16.90;99.90;;;;;;5982204;24;19918;-93
2022/10/07 11:26:04;;;;;;;;;;;16.90;99.90;;;;;;5982200;24;20241;-95
2022/10/07 11:28:31;;;;;;;;;;;17.00;99.90;;;;;;5977328;24;19993;-92
2022/10/07 11:31:08;;;;;;;;;;;17.00;99.90;;;;;;5958839;24;19922;-91
2022/10/07 11:34:00;;;;;;;;;;;16.90;99.90;;;;;;5980348;24;19941;-92
2022/10/07 11:36:42;;;;;;;;;;;16.90;99.90;;;;;;5949661;24;19937;-92
2022/10/07 11:39:08;;;;;;;;;;;16.80;99.90;;;;;;5979378;24;19922;-92
2022/10/07 11:41:46;;;;;;;;;;;16.80;99.90;;;;;;5957066;24;19918;-90
2022/10/07 11:44:21;;;;;;;;;;;16.80;99.90;;;;;;6003733;23;19983;-90
2022/10/07 11:46:47;;;;;;;;;;;16.90;99.90;;;;;;6002249;23;20273;-90
2022/10/07 11:49:20;;;;;;;;;;;16.90;99.90;;;;;;6003452;23;19938;-93
2022/10/07 11:51:52;;;;;;;;;;;16.90;99.90;;;;;;5981580;24;19914;-92
2022/10/07 11:54:20;;;;;;;;;;;16.90;99.90;;;;;;5981280;24;19926;-91
2022/10/07 11:56:48;;;;;;;;;;;17.00;99.90;;;;;;5981250;24;19915;-89
2022/10/07 11:59:43;;;;;;;;;;;17.00;99.90;;;;;;5980433;23;19918;-88
2022/10/07 12:02:41;;;;;;;;;;;17.10;99.90;;;;;;5985634;23;20230;-90
2022/10/07 12:05:27;;;;;;;;;;;17.20;99.90;;;;;;5957598;23;19915;-90
2022/10/07 12:07:57;;;;;;;;;;;17.20;99.90;;;;;;6002960;23;19954;-92
2022/10/07 12:10:24;;;;;;;;;;;17.10;99.90;;;;;;5956633;24;20022;-90
2022/10/07 12:12:51;;;;;;;;;;;17.10;99.90;;;;;;5981790;24;20369;-91
2022/10/07 12:15:25;;;;;;;;;;;17.10;99.90;;;;;;5984226;23;19914;-91
2022/10/07 12:18:03;;;;;;;;;;;17.10;99.90;;;;;;6004887;23;19914;-92
2022/10/07 12:20:36;;;;;;;;;;;17.10;99.90;;;;;;5957325;24;19990;-90
2022/10/07 12:23:22;;;;;;;;;;;17.10;99.90;;;;;;5981543;23;20289;-92
2022/10/07 12:25:52;;;;;;;;;;;17.00;99.90;;;;;;6003827;23;19989;-90
2022/10/07 12:28:30;;;;;;;;;;;17.00;99.90;;;;;;6003304;23;19950;-95
2022/10/07 12:31:14;;;;;;;;;;;17.00;99.90;;;;;;5958474;24;20264;-92
2022/10/07 12:33:42;;;;;;;;;;;17.00;99.90;;;;;;5980980;24;19921;-93
2022/10/07 12:36:28;;;;;;;;;;;17.00;99.90;;;;;;5983273;23;20245;-92
2022/10/07 12:38:59;;;;;;;;;;;17.00;99.90;;;;;;5982239;23;19921;-91
2022/10/07 12:41:34;;;;;;;;;;;17.00;99.90;;;;;;5981304;24;19989;-91
2022/10/07 12:44:06;;;;;;;;;;;17.10;99.90;;;;;;5982522;23;19921;-89
2022/10/07 12:46:33;;;;;;;;;;;17.10;99.90;;;;;;5982287;24;19966;-91
2022/10/07 12:48:58;;;;;;;;;;;17.00;99.90;;;;;;5957297;24;19919;-92
2022/10/07 12:51:27;;;;;;;;;;;17.10;99.90;;;;;;6003738;23;19914;-89
2022/10/07 12:53:52;;;;;;;;;;;17.10;99.90;;;;;;6004127;23;19952;-94
2022/10/07 12:56:21;;;;;;;;;;;17.20;99.90;;;;;;5957282;24;19919;-92
2022/10/07 13:01:51;;;;;;;;;;;17.20;99.90;;;;;;6004187;23;19914;-91
2022/10/07 13:04:27;;;;;;;;;;;17.20;99.90;;;;;;5958609;24;20252;-92
2022/10/07 13:07:11;;;;;;;;;;;17.20;99.90;;;;;;6006525;23;20368;-92
2022/10/07 13:09:36;;;;;;;;;;;17.20;99.90;;;;;;5983680;24;19919;-92
2022/10/07 13:12:12;;;;;;;;;;;17.20;99.90;;;;;;6005712;23;19918;-91
2022/10/07 13:14:58;;;;;;;;;;;17.20;99.90;;;;;;6005710;23;19918;-94
2022/10/07 13:17:34;;;;;;;;;;;17.10;99.90;;;;;;5939940;24;19925;-89
2022/10/07 13:20:18;;;;;;;;;;;17.10;99.90;;;;;;5982043;24;19914;-93
2022/10/07 13:22:46;;;;;;;;;;;17.10;99.90;;;;;;5959279;24;19915;-91
2022/10/07 13:25:12;;;;;;;;;;;17.10;99.90;;;;;;6008258;23;19914;-93
2022/10/07 13:27:40;;;;;;;;;;;17.10;99.90;;;;;;5986889;24;19929;-92
2022/10/07 13:30:07;;;;;;;;;;;17.10;99.90;;;;;;5988991;23;19950;-92
2022/10/07 13:32:34;;;;;;;;;;;17.10;99.90;;;;;;6005767;23;19922;-92
2022/10/07 13:35:20;;;;;;;;;;;17.10;99.90;;;;;;5958647;24;19946;-93
2022/10/07 13:37:46;;;;;;;;;;;17.10;99.90;;;;;;5981344;23;19982;-90
2022/10/07 13:40:20;;;;;;;;;;;17.10;99.90;;;;;;5983130;24;19918;-92
2022/10/07 13:42:51;;;;;;;;;;;17.10;99.90;;;;;;6007828;23;20329;-92
2022/10/07 13:45:17;;;;;;;;;;;17.10;99.90;;;;;;5985012;24;19914;-92
2022/10/07 13:47:44;;;;;;;;;;;17.10;99.90;;;;;;6008212;23;19918;-92
2022/10/07 13:50:15;;;;;;;;;;;17.20;99.90;;;;;;6006582;23;19914;-92
2022/10/07 13:52:43;;;;;;;;;;;17.20;99.90;;;;;;6005986;23;19958;-91
2022/10/07 13:55:28;;;;;;;;;;;17.20;99.90;;;;;;5982504;24;20226;-91
2022/10/07 13:57:57;;;;;;;;;;;17.30;99.90;;;;;;5982597;24;19926;-93
2022/10/07 14:00:23;;;;;;;;;;;17.30;99.90;;;;;;5983729;24;19918;-92
2022/10/07 14:02:49;;;;;;;;;;;17.30;99.90;;;;;;6005350;23;19947;-92
2022/10/07 14:05:22;;;;;;;;;;;17.30;99.90;;;;;;5982591;24;19938;-93
2022/10/07 14:07:55;;;;;;;;;;;17.30;99.90;;;;;;5960078;24;19925;-93
2022/10/07 14:10:22;;;;;;;;;;;17.30;99.90;;;;;;5961020;24;19922;-93
2022/10/07 14:12:49;;;;;;;;;;;17.30;99.90;;;;;;5984013;24;19939;-92
2022/10/07 14:15:19;;;;;;;;;;;17.20;99.90;;;;;;5983708;24;20194;-92
2022/10/07 14:17:46;;;;;;;;;;;17.20;99.90;;;;;;5982563;24;19914;-93
2022/10/07 14:20:26;;;;;;;;;;;17.10;99.90;;;;;;5959323;24;19984;-92
2022/10/07 14:23:11;;;;;;;;;;;17.10;99.90;;;;;;6005401;23;19922;-92
2022/10/07 14:25:49;;;;;;;;;;;17.10;99.90;;;;;;5972779;24;19921;-93
2022/10/07 14:28:21;;;;;;;;;;;17.10;99.90;;;;;;5963556;24;19918;-95
2022/10/07 14:36:36;;;;;;;;;;;17.00;99.90;;;;;;5982776;24;19920;-91
2022/10/07 14:39:22;;;;;;;;;;;17.00;99.90;;;;;;6004252;23;19954;-92
2022/10/07 14:41:47;;;;;;;;;;;17.00;99.90;;;;;;6004934;23;20257;-92
2022/10/07 14:44:13;;;;;;;;;;;16.90;99.90;;;;;;5982907;24;19953;-92
2022/10/07 14:46:39;;;;;;;;;;;16.80;99.90;;;;;;5983884;23;20004;-92
2022/10/07 14:49:05;;;;;;;;;;;16.90;99.90;;;;;;5958357;24;19915;-90
2022/10/07 14:51:31;;;;;;;;;;;16.80;99.90;;;;;;5959044;24;19993;-92